Time;durP1;ratioP1;P1;durP2;ratioP2;P2;SDS_P1;SDS_P2;PMS_P1;PMS_P2;Temp;Humidity;BMP_temperature;BMP_pressure;BME280_temperature;BME280_humidity;BME280_pressure;Samples;Min_cycle;Max_cycle;Signal;HPM_P1;HPM_P2
2021/12/06 00:03:00;;;;;;;61.97;27.08;;;;;;;;;;10500174;28;20222;-66
2021/12/06 00:08:02;;;;;;;61.28;26.92;;;;;;;;;;10498218;28;20596;-66
2021/12/06 00:13:03;;;;;;;65.05;27.35;;;;;;;;;;10499403;28;20181;-65
2021/12/06 00:18:04;;;;;;;59.65;27.75;;;;;;;;;;10499129;28;20258;-65
2021/12/06 00:23:05;;;;;;;61.08;28.20;;;;;;;;;;10477447;28;20205;-65
2021/12/06 00:28:06;;;;;;;65.97;29.38;;;;;;;;;;10497902;28;20181;-65
2021/12/06 00:33:07;;;;;;;67.13;28.95;;;;;;;;;;10498373;28;20251;-65
2021/12/06 00:38:09;;;;;;;62.58;25.90;;;;;;;;;;10500758;28;20174;-65
2021/12/06 00:43:10;;;;;;;67.25;28.92;;;;;;;;;;10493895;28;20199;-66
2021/12/06 00:48:11;;;;;;;67.22;28.08;;;;;;;;;;10493992;28;20892;-65
2021/12/06 00:53:12;;;;;;;76.63;30.17;;;;;;;;;;10493571;28;20181;-66
2021/12/06 00:58:13;;;;;;;87.85;31.55;;;;;;;;;;10454973;28;20193;-65
2021/12/06 01:03:17;;;;;;;83.93;31.77;;;;;;;;;;10476757;28;20267;-65
2021/12/06 01:08:20;;;;;;;93.93;33.45;;;;;;;;;;10486420;28;20182;-65
2021/12/06 01:13:22;;;;;;;87.60;31.92;;;;;;;;;;10495586;28;20189;-65
2021/12/06 01:18:24;;;;;;;101.88;31.95;;;;;;;;;;10478973;28;20280;-64
2021/12/06 01:23:30;;;;;;;90.68;31.77;;;;;;;;;;10488623;28;20214;-65
2021/12/06 01:34:04;;;;;;;95.18;34.47;;;;;;;;;;10477953;28;20202;-65
2021/12/06 01:39:12;;;;;;;90.22;32.58;;;;;;;;;;10482461;28;20222;-65
2021/12/06 01:44:20;;;;;;;67.93;28.63;;;;;;;;;;10476858;28;20715;-65
2021/12/06 01:49:29;;;;;;;77.82;29.17;;;;;;;;;;10475037;28;20293;-65
2021/12/06 01:54:30;;;;;;;59.30;27.42;;;;;;;;;;10495024;28;20182;-65
2021/12/06 01:59:31;;;;;;;62.92;27.02;;;;;;;;;;10476111;28;20236;-65
2021/12/06 02:04:33;;;;;;;58.57;27.07;;;;;;;;;;10472678;28;20228;-65
2021/12/06 02:09:35;;;;;;;62.83;27.73;;;;;;;;;;10479703;28;20209;-65
2021/12/06 02:19:49;;;;;;;52.97;27.10;;;;;;;;;;10481792;28;20213;-66
2021/12/06 02:24:52;;;;;;;52.15;25.42;;;;;;;;;;10477541;28;20181;-66
2021/12/06 02:29:55;;;;;;;51.50;25.13;;;;;;;;;;10497828;28;20182;-66
2021/12/06 02:34:58;;;;;;;51.67;25.40;;;;;;;;;;10486141;28;20240;-65
2021/12/06 02:40:00;;;;;;;51.72;26.23;;;;;;;;;;10472599;28;20216;-65
2021/12/06 02:45:02;;;;;;;60.33;28.55;;;;;;;;;;10473981;28;20170;-65
2021/12/06 02:50:08;;;;;;;58.25;27.25;;;;;;;;;;10504483;28;20210;-65
2021/12/06 03:00:31;;;;;;;57.30;25.90;;;;;;;;;;10491057;28;20297;-65
2021/12/06 03:05:34;;;;;;;53.95;26.10;;;;;;;;;;10483881;28;20175;-65
2021/12/06 03:10:35;;;;;;;53.97;24.83;;;;;;;;;;10493418;28;20816;-65
2021/12/06 03:15:36;;;;;;;50.47;24.90;;;;;;;;;;10494806;28;20210;-64
2021/12/06 03:20:38;;;;;;;44.38;22.83;;;;;;;;;;10485059;28;20198;-65
2021/12/06 03:25:39;;;;;;;46.97;23.83;;;;;;;;;;10473249;28;20655;-66
2021/12/06 03:30:40;;;;;;;46.67;24.15;;;;;;;;;;10496185;28;20997;-65
2021/12/06 03:35:41;;;;;;;51.53;24.60;;;;;;;;;;10492371;28;20170;-65
2021/12/06 03:40:44;;;;;;;54.47;23.63;;;;;;;;;;10483154;28;20206;-65
2021/12/06 03:45:45;;;;;;;49.80;24.73;;;;;;;;;;10486832;28;20201;-65
2021/12/06 03:50:46;;;;;;;50.53;24.10;;;;;;;;;;10497627;28;20201;-65
2021/12/06 03:55:48;;;;;;;56.33;24.17;;;;;;;;;;10477176;28;20199;-66
2021/12/06 04:00:49;;;;;;;59.38;24.08;;;;;;;;;;10499355;28;20245;-66
2021/12/06 04:05:51;;;;;;;51.08;24.02;;;;;;;;;;10488052;28;20248;-66
2021/12/06 04:10:55;;;;;;;50.03;23.52;;;;;;;;;;10481889;28;20177;-66
2021/12/06 04:15:57;;;;;;;50.63;23.77;;;;;;;;;;10490018;28;20202;-66
2021/12/06 04:20:59;;;;;;;61.33;24.85;;;;;;;;;;10488899;28;20198;-66
2021/12/06 04:26:01;;;;;;;53.97;25.10;;;;;;;;;;10486405;28;20734;-66
2021/12/06 04:31:04;;;;;;;50.10;24.85;;;;;;;;;;10474769;28;20306;-66
2021/12/06 04:36:07;;;;;;;49.40;23.00;;;;;;;;;;10479318;28;20546;-66
2021/12/06 04:41:08;;;;;;;49.70;25.05;;;;;;;;;;10483804;28;20343;-66
2021/12/06 04:46:09;;;;;;;55.47;23.88;;;;;;;;;;10487827;28;20633;-66
2021/12/06 04:51:11;;;;;;;48.03;22.70;;;;;;;;;;10481877;28;20182;-66
2021/12/06 04:56:15;;;;;;;45.58;22.73;;;;;;;;;;10474793;28;20174;-66
2021/12/06 05:01:21;;;;;;;50.83;23.17;;;;;;;;;;10490126;28;20217;-66
2021/12/06 05:06:24;;;;;;;42.25;20.23;;;;;;;;;;10483636;28;20193;-65
2021/12/06 05:11:27;;;;;;;42.03;20.27;;;;;;;;;;10482281;28;20200;-66
2021/12/06 05:16:28;;;;;;;43.38;21.58;;;;;;;;;;10483478;28;20768;-66
2021/12/06 05:21:30;;;;;;;37.25;19.52;;;;;;;;;;10487933;28;20210;-66
2021/12/06 05:26:31;;;;;;;39.85;19.27;;;;;;;;;;10471766;28;20300;-66
2021/12/06 05:31:39;;;;;;;36.67;19.08;;;;;;;;;;10476985;28;20714;-66
2021/12/06 05:36:41;;;;;;;29.92;16.77;;;;;;;;;;10472073;28;20174;-66
2021/12/06 05:41:42;;;;;;;39.25;18.52;;;;;;;;;;10486692;28;20274;-66
2021/12/06 05:46:43;;;;;;;39.90;18.42;;;;;;;;;;10491684;28;20214;-66
2021/12/06 05:51:44;;;;;;;38.70;18.67;;;;;;;;;;10491513;28;20176;-66
2021/12/06 05:56:45;;;;;;;37.60;18.38;;;;;;;;;;10493675;28;20196;-66
2021/12/06 06:01:48;;;;;;;30.75;17.67;;;;;;;;;;10485236;28;20222;-66
2021/12/06 06:06:50;;;;;;;33.83;17.98;;;;;;;;;;10490812;28;20245;-65
2021/12/06 06:11:51;;;;;;;32.03;18.35;;;;;;;;;;10491571;28;20190;-66
2021/12/06 06:16:53;;;;;;;28.65;16.77;;;;;;;;;;10489314;28;20209;-65
2021/12/06 06:21:54;;;;;;;35.58;19.45;;;;;;;;;;10478716;28;20213;-66
2021/12/06 06:26:55;;;;;;;33.67;18.60;;;;;;;;;;10493194;28;20616;-66
2021/12/06 06:31:56;;;;;;;38.65;18.52;;;;;;;;;;10499400;28;20797;-66
2021/12/06 06:36:57;;;;;;;38.28;19.77;;;;;;;;;;10474716;28;20188;-66
2021/12/06 06:41:58;;;;;;;30.27;18.17;;;;;;;;;;10495407;28;20716;-66
2021/12/06 06:47:00;;;;;;;33.72;18.85;;;;;;;;;;10500434;28;20209;-66
2021/12/06 06:52:01;;;;;;;38.90;20.98;;;;;;;;;;10501911;28;20357;-65
2021/12/06 06:57:02;;;;;;;32.13;17.77;;;;;;;;;;10478793;28;20193;-66
2021/12/06 07:02:03;;;;;;;35.22;18.58;;;;;;;;;;10498911;28;20649;-66
2021/12/06 07:07:05;;;;;;;32.47;18.25;;;;;;;;;;10496364;28;20181;-65
2021/12/06 07:12:12;;;;;;;33.35;18.25;;;;;;;;;;10500612;28;20186;-65
2021/12/06 07:17:13;;;;;;;35.92;18.63;;;;;;;;;;10500192;28;20231;-66
2021/12/06 07:22:14;;;;;;;33.13;19.52;;;;;;;;;;10498099;28;20205;-66
2021/12/06 07:27:15;;;;;;;36.08;18.42;;;;;;;;;;10487667;28;20184;-66
2021/12/06 07:32:16;;;;;;;36.60;19.17;;;;;;;;;;10486623;28;20261;-66
2021/12/06 07:37:17;;;;;;;39.00;18.47;;;;;;;;;;10495003;28;20564;-66
2021/12/06 07:42:18;;;;;;;33.97;18.50;;;;;;;;;;10491596;28;20213;-66
2021/12/06 07:47:19;;;;;;;35.10;18.48;;;;;;;;;;10499960;28;20217;-66
2021/12/06 07:52:21;;;;;;;36.65;18.55;;;;;;;;;;10496822;28;20186;-66
2021/12/06 07:57:22;;;;;;;36.83;20.40;;;;;;;;;;10491920;28;20205;-65
2021/12/06 08:02:23;;;;;;;37.78;20.15;;;;;;;;;;10495998;28;20294;-66
2021/12/06 08:07:24;;;;;;;33.43;18.10;;;;;;;;;;10488841;28;20290;-66
2021/12/06 08:12:25;;;;;;;36.22;18.98;;;;;;;;;;10493349;28;20174;-66
2021/12/06 08:17:26;;;;;;;37.57;21.43;;;;;;;;;;10490867;28;20217;-66
2021/12/06 08:22:27;;;;;;;41.58;22.05;;;;;;;;;;10471181;28;20247;-66
2021/12/06 08:27:28;;;;;;;42.10;22.25;;;;;;;;;;10487161;28;20185;-66
2021/12/06 08:32:29;;;;;;;39.70;22.17;;;;;;;;;;10488269;28;20217;-65
2021/12/06 08:37:30;;;;;;;47.47;24.45;;;;;;;;;;10498135;28;20724;-66
2021/12/06 08:42:31;;;;;;;49.13;23.77;;;;;;;;;;10498427;28;20216;-67
2021/12/06 08:47:32;;;;;;;48.17;23.33;;;;;;;;;;10488671;28;20304;-67
2021/12/06 08:52:33;;;;;;;42.13;21.92;;;;;;;;;;10485990;28;20808;-66
2021/12/06 08:57:35;;;;;;;43.47;23.45;;;;;;;;;;10486062;28;20193;-65
2021/12/06 09:02:38;;;;;;;47.63;24.02;;;;;;;;;;10488600;28;20225;-67
2021/12/06 09:07:39;;;;;;;44.42;23.52;;;;;;;;;;10479702;28;20927;-67
2021/12/06 09:12:40;;;;;;;42.00;23.92;;;;;;;;;;10492573;28;20690;-66
2021/12/06 09:17:41;;;;;;;48.42;24.17;;;;;;;;;;10487174;28;20813;-66
2021/12/06 09:22:45;;;;;;;51.72;26.85;;;;;;;;;;10487845;28;20210;-66
2021/12/06 09:27:46;;;;;;;50.70;26.48;;;;;;;;;;10489785;28;20197;-66
2021/12/06 09:32:48;;;;;;;56.45;27.80;;;;;;;;;;10486048;28;20210;-66
2021/12/06 09:37:49;;;;;;;49.15;25.45;;;;;;;;;;10487660;28;20194;-66
2021/12/06 09:42:51;;;;;;;48.95;24.90;;;;;;;;;;10493011;28;20198;-67
2021/12/06 09:47:53;;;;;;;45.35;24.83;;;;;;;;;;10491970;28;20755;-67
2021/12/06 09:52:56;;;;;;;50.63;24.90;;;;;;;;;;10490895;28;20221;-67
2021/12/06 09:57:57;;;;;;;48.65;24.17;;;;;;;;;;10497333;28;20703;-67
2021/12/06 10:02:58;;;;;;;53.03;24.88;;;;;;;;;;10493739;28;20217;-67
2021/12/06 10:08:00;;;;;;;45.17;23.27;;;;;;;;;;10494167;28;20189;-67
2021/12/06 10:13:01;;;;;;;42.85;22.33;;;;;;;;;;10502896;28;20204;-68
2021/12/06 10:18:03;;;;;;;49.17;24.15;;;;;;;;;;10495107;28;20216;-67
2021/12/06 10:23:04;;;;;;;47.30;23.67;;;;;;;;;;10494767;28;20296;-67
2021/12/06 10:28:06;;;;;;;37.47;21.33;;;;;;;;;;10491624;28;20174;-66
2021/12/06 10:33:09;;;;;;;40.33;22.17;;;;;;;;;;10492403;28;20221;-67
2021/12/06 10:38:11;;;;;;;40.22;22.20;;;;;;;;;;10494507;28;20286;-67
2021/12/06 10:43:12;;;;;;;38.80;21.05;;;;;;;;;;10498928;28;20217;-67
2021/12/06 10:48:16;;;;;;;44.38;22.30;;;;;;;;;;10495588;28;20217;-67
2021/12/06 10:53:22;;;;;;;45.92;25.30;;;;;;;;;;10479787;28;20251;-67
2021/12/06 10:58:25;;;;;;;50.85;29.08;;;;;;;;;;10492969;28;20272;-67
2021/12/06 11:03:37;;;;;;;46.10;23.67;;;;;;;;;;10493255;28;20845;-67
2021/12/06 11:08:39;;;;;;;44.40;24.33;;;;;;;;;;10476837;28;20748;-66
2021/12/06 11:13:45;;;;;;;39.63;20.88;;;;;;;;;;10495447;28;20171;-67
2021/12/06 11:19:01;;;;;;;37.28;20.77;;;;;;;;;;10488398;28;20687;-67
2021/12/06 11:24:19;;;;;;;38.85;22.10;;;;;;;;;;10454833;28;20205;-67
2021/12/06 11:29:24;;;;;;;42.13;21.30;;;;;;;;;;10491873;28;20236;-68
2021/12/06 11:35:08;;;;;;;37.08;21.70;;;;;;;;;;10456200;28;20210;-67
2021/12/06 11:40:26;;;;;;;34.97;20.58;;;;;;;;;;10489343;28;20209;-67
2021/12/06 11:46:08;;;;;;;35.45;20.40;;;;;;;;;;10492006;28;20300;-67
2021/12/06 11:51:12;;;;;;;33.92;19.67;;;;;;;;;;10452217;28;20194;-67
2021/12/06 11:56:18;;;;;;;36.95;20.70;;;;;;;;;;10500898;28;20178;-67
2021/12/06 12:01:23;;;;;;;36.58;21.13;;;;;;;;;;10471924;28;20222;-67
2021/12/06 12:06:34;;;;;;;32.33;20.17;;;;;;;;;;10465067;28;20266;-67
2021/12/06 12:11:59;;;;;;;34.78;20.90;;;;;;;;;;10473138;28;20182;-67
2021/12/06 12:17:02;;;;;;;41.20;21.10;;;;;;;;;;10468036;28;20271;-67
2021/12/06 12:22:03;;;;;;;36.30;21.60;;;;;;;;;;10489728;28;20313;-67
2021/12/06 12:27:19;;;;;;;33.65;19.02;;;;;;;;;;10492143;28;20269;-66
2021/12/06 12:32:20;;;;;;;34.97;20.33;;;;;;;;;;10480089;28;20240;-67
2021/12/06 12:37:22;;;;;;;37.65;20.70;;;;;;;;;;10489647;28;20281;-66
2021/12/06 12:42:24;;;;;;;37.85;19.63;;;;;;;;;;10468890;28;20218;-65
2021/12/06 12:47:26;;;;;;;35.40;19.70;;;;;;;;;;10483949;28;20218;-67
2021/12/06 12:52:42;;;;;;;37.13;21.52;;;;;;;;;;10452331;28;20583;-67
2021/12/06 12:57:44;;;;;;;36.30;20.15;;;;;;;;;;10463821;28;20193;-65
2021/12/06 13:02:46;;;;;;;40.40;21.75;;;;;;;;;;10460728;28;20221;-65
2021/12/06 13:07:48;;;;;;;35.28;19.83;;;;;;;;;;10488029;28;20186;-66
2021/12/06 13:13:06;;;;;;;34.00;19.23;;;;;;;;;;10479226;28;20174;-65
2021/12/06 13:18:29;;;;;;;36.30;19.85;;;;;;;;;;10448095;28;20763;-66
2021/12/06 13:23:32;;;;;;;33.55;19.00;;;;;;;;;;10473690;28;20579;-65
2021/12/06 13:28:53;;;;;;;33.92;18.10;;;;;;;;;;10469529;28;20259;-66
2021/12/06 13:33:54;;;;;;;31.58;18.35;;;;;;;;;;10481654;28;20216;-65
2021/12/06 13:39:02;;;;;;;32.67;17.85;;;;;;;;;;10482628;28;20696;-67
2021/12/06 13:44:44;;;;;;;28.58;16.63;;;;;;;;;;10523113;27;21070;-67
2021/12/06 13:49:57;;;;;;;31.35;16.92;;;;;;;;;;10444557;28;20279;-67
2021/12/06 13:54:58;;;;;;;32.92;17.23;;;;;;;;;;10447545;28;20244;-66
2021/12/06 14:00:04;;;;;;;30.50;15.98;;;;;;;;;;10446475;28;20202;-66
2021/12/06 14:05:12;;;;;;;30.17;18.05;;;;;;;;;;10443852;28;20716;-65
2021/12/06 14:10:17;;;;;;;33.92;17.42;;;;;;;;;;10442074;28;20273;-67
2021/12/06 14:20:47;;;;;;;32.38;17.70;;;;;;;;;;10441137;28;20663;-66
2021/12/06 14:25:50;;;;;;;28.33;16.90;;;;;;;;;;10443214;28;20176;-69
2021/12/06 14:30:52;;;;;;;28.02;15.23;;;;;;;;;;10437503;28;20310;-66
2021/12/06 14:36:02;;;;;;;28.17;16.27;;;;;;;;;;10439393;28;20174;-67
2021/12/06 14:41:06;;;;;;;29.85;16.33;;;;;;;;;;10438518;28;20210;-66
2021/12/06 14:46:08;;;;;;;30.10;16.13;;;;;;;;;;10439779;28;20203;-68
2021/12/06 14:51:11;;;;;;;28.77;16.65;;;;;;;;;;10437362;28;20187;-65
2021/12/06 15:01:23;;;;;;;26.95;14.38;;;;;;;;;;10409316;28;21312;-66
2021/12/06 15:06:25;;;;;;;25.80;14.65;;;;;;;;;;10413348;28;20192;-66
2021/12/06 15:11:30;;;;;;;27.30;15.32;;;;;;;;;;10415962;28;20194;-66
2021/12/06 15:16:31;;;;;;;29.42;16.67;;;;;;;;;;10418260;28;20223;-66
2021/12/06 15:21:33;;;;;;;28.70;16.33;;;;;;;;;;10414989;28;20317;-64
2021/12/06 15:26:42;;;;;;;32.97;16.92;;;;;;;;;;10408405;28;20916;-65
2021/12/06 15:31:45;;;;;;;32.15;16.73;;;;;;;;;;10408372;28;20245;-66
2021/12/06 15:36:46;;;;;;;34.63;17.73;;;;;;;;;;10414748;28;20245;-66
2021/12/06 15:41:52;;;;;;;32.03;16.73;;;;;;;;;;10414949;28;20199;-67
2021/12/06 15:46:55;;;;;;;32.38;17.65;;;;;;;;;;10426345;28;20599;-66
2021/12/06 15:52:01;;;;;;;34.40;17.85;;;;;;;;;;10414673;28;20927;-65
2021/12/06 15:57:05;;;;;;;33.15;18.40;;;;;;;;;;10412183;28;20265;-65
2021/12/06 16:02:08;;;;;;;31.42;17.90;;;;;;;;;;10409677;28;20254;-66
2021/12/06 16:13:37;;;;;;;34.38;18.85;;;;;;;;;;10423229;28;20183;-66
2021/12/06 16:19:03;;;;;;;37.30;18.60;;;;;;;;;;10489800;28;20853;-67
2021/12/06 16:24:05;;;;;;;35.78;18.63;;;;;;;;;;10493157;28;20321;-66
2021/12/06 16:29:11;;;;;;;44.10;20.48;;;;;;;;;;10493018;28;20240;-66
2021/12/06 16:34:14;;;;;;;38.90;19.77;;;;;;;;;;10495061;28;20664;-66
2021/12/06 16:39:26;;;;;;;35.53;18.92;;;;;;;;;;10494916;28;20231;-67
2021/12/06 16:44:32;;;;;;;32.53;17.20;;;;;;;;;;10497205;28;20688;-67
2021/12/06 16:49:35;;;;;;;32.30;16.53;;;;;;;;;;10475375;28;20229;-66
2021/12/06 16:54:36;;;;;;;26.63;15.48;;;;;;;;;;10496584;28;20230;-66
2021/12/06 16:59:40;;;;;;;26.73;15.23;;;;;;;;;;10479451;28;20697;-66
2021/12/06 17:04:59;;;;;;;31.88;16.35;;;;;;;;;;10498687;28;20267;-65
2021/12/06 17:10:04;;;;;;;33.80;16.20;;;;;;;;;;10498108;28;20209;-65
2021/12/06 17:15:16;;;;;;;31.83;15.47;;;;;;;;;;10495212;28;20259;-65
2021/12/06 17:20:18;;;;;;;28.10;15.67;;;;;;;;;;10495383;28;20251;-66
2021/12/06 17:25:19;;;;;;;29.85;16.65;;;;;;;;;;10492754;28;20214;-66
2021/12/06 17:30:27;;;;;;;30.63;15.97;;;;;;;;;;10481215;28;20220;-66
2021/12/06 17:35:28;;;;;;;38.20;16.20;;;;;;;;;;10491861;28;20278;-65
2021/12/06 17:40:29;;;;;;;28.97;16.43;;;;;;;;;;10489262;28;20216;-66
2021/12/06 17:45:30;;;;;;;37.40;18.33;;;;;;;;;;10496469;28;20221;-66
2021/12/06 17:50:32;;;;;;;70.73;36.30;;;;;;;;;;10494986;28;20202;-66
2021/12/06 17:55:34;;;;;;;40.60;21.83;;;;;;;;;;10494483;28;20197;-65
2021/12/06 18:00:35;;;;;;;38.07;19.00;;;;;;;;;;10490814;28;20282;-66
2021/12/06 18:05:36;;;;;;;39.73;18.73;;;;;;;;;;10496688;28;20197;-66
2021/12/06 18:10:37;;;;;;;39.37;21.60;;;;;;;;;;10490222;28;20182;-66
2021/12/06 18:15:38;;;;;;;42.13;24.57;;;;;;;;;;10489669;28;20510;-66
2021/12/06 18:20:40;;;;;;;42.43;22.50;;;;;;;;;;10494410;28;20209;-65
2021/12/06 18:25:41;;;;;;;42.77;20.63;;;;;;;;;;10475200;28;20197;-66
2021/12/06 18:30:43;;;;;;;47.73;25.93;;;;;;;;;;10503671;28;20217;-67
2021/12/06 18:35:44;;;;;;;42.57;21.50;;;;;;;;;;10498618;28;20246;-68
2021/12/06 18:40:54;;;;;;;44.23;22.70;;;;;;;;;;10501102;28;20213;-68
2021/12/06 18:45:55;;;;;;;41.23;20.77;;;;;;;;;;10495350;28;20209;-66
2021/12/06 18:50:57;;;;;;;53.40;24.93;;;;;;;;;;10497476;28;20189;-67
2021/12/06 18:55:59;;;;;;;45.67;21.77;;;;;;;;;;10496012;28;20181;-66
2021/12/06 19:01:00;;;;;;;46.20;22.70;;;;;;;;;;10495560;28;20806;-66
2021/12/06 19:06:01;;;;;;;46.70;22.93;;;;;;;;;;10496774;28;20189;-66
2021/12/06 19:11:03;;;;;;;47.37;22.37;;;;;;;;;;10494649;28;20558;-66
2021/12/06 19:16:05;;;;;;;45.57;20.90;;;;;;;;;;10496298;28;20221;-66
2021/12/06 19:21:06;;;;;;;50.73;22.53;;;;;;;;;;10494256;28;20210;-65
2021/12/06 19:26:07;;;;;;;49.60;22.50;;;;;;;;;;10497616;28;20171;-66
2021/12/06 19:31:09;;;;;;;51.67;23.57;;;;;;;;;;10493945;28;20206;-66
2021/12/06 19:36:11;;;;;;;46.97;23.13;;;;;;;;;;10495432;28;20652;-66
2021/12/06 19:41:12;;;;;;;49.97;23.37;;;;;;;;;;10494451;28;20205;-66
2021/12/06 19:46:14;;;;;;;52.10;25.00;;;;;;;;;;10494175;28;20213;-66
2021/12/06 19:51:16;;;;;;;56.80;24.70;;;;;;;;;;10495024;28;20218;-66
2021/12/06 19:56:17;;;;;;;55.57;24.37;;;;;;;;;;10482836;28;20194;-66
2021/12/06 20:01:18;;;;;;;52.63;24.10;;;;;;;;;;10473996;28;20222;-66
2021/12/06 20:06:19;;;;;;;56.13;25.43;;;;;;;;;;10494002;28;20182;-66
2021/12/06 20:11:20;;;;;;;55.57;24.70;;;;;;;;;;10491139;28;21067;-67
2021/12/06 20:16:21;;;;;;;53.70;25.13;;;;;;;;;;10491741;28;20206;-65
2021/12/06 20:21:22;;;;;;;54.10;24.70;;;;;;;;;;10490989;28;20233;-66
2021/12/06 20:26:24;;;;;;;50.95;22.52;;;;;;;;;;10493366;28;20219;-66
2021/12/06 20:31:28;;;;;;;57.90;25.63;;;;;;;;;;10484030;28;20206;-66
2021/12/06 20:36:31;;;;;;;52.07;25.20;;;;;;;;;;10495891;28;20258;-64
2021/12/06 20:41:32;;;;;;;50.22;23.98;;;;;;;;;;10475787;28;20321;-65
2021/12/06 20:46:34;;;;;;;55.78;25.25;;;;;;;;;;10493888;28;20418;-66
2021/12/06 20:51:36;;;;;;;57.00;25.00;;;;;;;;;;10494738;28;20288;-66
2021/12/06 20:56:37;;;;;;;50.83;24.13;;;;;;;;;;10494116;28;20777;-66
2021/12/06 21:01:38;;;;;;;51.50;23.33;;;;;;;;;;10493765;28;20438;-65
2021/12/06 21:06:40;;;;;;;52.93;26.33;;;;;;;;;;10480939;28;20236;-65
2021/12/06 21:11:47;;;;;;;55.80;24.50;;;;;;;;;;10492340;28;20186;-65
2021/12/06 21:16:48;;;;;;;51.83;24.33;;;;;;;;;;10491931;28;20209;-65
2021/12/06 21:21:49;;;;;;;52.00;21.53;;;;;;;;;;10495193;28;20263;-67
2021/12/06 21:26:50;;;;;;;57.47;25.17;;;;;;;;;;10494996;28;20272;-65
2021/12/06 21:31:51;;;;;;;53.95;23.67;;;;;;;;;;10494475;28;20301;-65
2021/12/06 21:36:53;;;;;;;51.77;24.13;;;;;;;;;;10497076;28;20835;-65
2021/12/06 21:41:54;;;;;;;42.00;20.70;;;;;;;;;;10473819;28;20252;-65
2021/12/06 21:46:55;;;;;;;52.58;23.15;;;;;;;;;;10493747;28;20272;-66
2021/12/06 21:51:56;;;;;;;46.88;23.17;;;;;;;;;;10494190;28;20195;-65
2021/12/06 21:56:57;;;;;;;46.43;23.03;;;;;;;;;;10489633;28;20223;-65
2021/12/06 22:01:59;;;;;;;47.92;21.60;;;;;;;;;;10493060;28;20229;-65
2021/12/06 22:07:00;;;;;;;54.53;23.47;;;;;;;;;;10498101;28;20184;-65
2021/12/06 22:12:01;;;;;;;49.90;23.08;;;;;;;;;;10487395;28;20194;-66
2021/12/06 22:17:03;;;;;;;49.17;24.00;;;;;;;;;;10499672;28;20217;-65
2021/12/06 22:22:04;;;;;;;49.50;23.20;;;;;;;;;;10485250;28;20210;-66
2021/12/06 22:27:06;;;;;;;48.07;22.07;;;;;;;;;;10500994;28;20304;-65
2021/12/06 22:32:07;;;;;;;45.83;21.00;;;;;;;;;;10499142;28;20304;-65
2021/12/06 22:37:09;;;;;;;46.07;23.10;;;;;;;;;;10501800;28;20224;-65
2021/12/06 22:42:10;;;;;;;39.80;18.83;;;;;;;;;;10497645;28;20256;-65
2021/12/06 22:47:12;;;;;;;42.07;21.60;;;;;;;;;;10497105;28;20221;-65
2021/12/06 22:52:13;;;;;;;49.63;23.07;;;;;;;;;;10482892;28;20235;-65
2021/12/06 22:57:14;;;;;;;50.97;21.60;;;;;;;;;;10481760;28;20259;-65
2021/12/06 23:02:15;;;;;;;49.53;22.33;;;;;;;;;;10479622;28;20354;-67
2021/12/06 23:07:16;;;;;;;46.53;22.33;;;;;;;;;;10500617;28;20205;-65
2021/12/06 23:12:19;;;;;;;42.83;18.20;;;;;;;;;;10500631;28;20232;-65
2021/12/06 23:17:20;;;;;;;34.70;15.90;;;;;;;;;;10500156;28;20717;-65
2021/12/06 23:22:22;;;;;;;52.03;23.13;;;;;;;;;;10501520;28;20210;-64
2021/12/06 23:27:23;;;;;;;43.27;18.80;;;;;;;;;;10482768;28;20655;-65
2021/12/06 23:32:24;;;;;;;46.27;20.90;;;;;;;;;;10500226;28;20585;-65
2021/12/06 23:37:30;;;;;;;43.13;19.43;;;;;;;;;;10500680;28;20936;-65
2021/12/06 23:47:52;;;;;;;41.03;20.37;;;;;;;;;;10499962;28;20248;-65
2021/12/06 23:52:53;;;;;;;39.93;18.27;;;;;;;;;;10481696;28;20177;-65
2021/12/06 23:57:54;;;;;;;41.00;18.23;;;;;;;;;;10500376;28;20193;-65
